»·PEaware :: FFT570 KSLC-KDEN

FFT570 :: KSLC-KDEN

FLIGHT INFORMATION

Flight Status: Arrived
Operator:
Frontier Airlines
More flights by this operator :: More flights under this callsign
Pilot: Andrew J. (13363)
Aircraft: AIRBUS A321
(A321)
More flights by this aircraft type
Origin: KSLC Salt Lake City Intl
United States
Destination: KDEN Denver Intl
United States
More flights between these airports :: More routes between these airports
Route: RUGGD1 PERTY KAMPR LONGZ1
File this flight plan on PilotEdge
Remarks:
Altitude:
(Current/Filed)
35,000ft
Speed:
(Current/Filed)
457kts
Departed: 01-Oct-20 11:38 PM
Arrived: 02-Oct-20 12:32 AM
Distance/Time
Traveled:
339nm/0:53
Distance/Time
To Go:
Arrived

Flight Plot

Page will automatically refresh every two minutes.

Flight plan parsing failed; only flown route is shown


Map Options




Map Legend


Flown Route
Filed Route
Departure Airport
Arrival Airport
Navaid (VOR, NDB)
Fix

Horizontal Profiles

Position Reports

Time Latitude Longitude Heading Altitude Ground
Speed
01-Oct-20 23:26 40.785643 -111.978608 240 4236ft 0kts
01-Oct-20 23:27 40.785643 -111.978608 240 4236ft 0kts
01-Oct-20 23:28 40.785643 -111.978608 240 4236ft 0kts
01-Oct-20 23:29 40.785855 -111.978362 193 4236ft 2kts
01-Oct-20 23:30 40.785974 -111.977956 57 4236ft 5kts
01-Oct-20 23:31 40.786150 -111.977516 84 4236ft 0kts
01-Oct-20 23:32 40.786150 -111.977516 84 4236ft 0kts
01-Oct-20 23:33 40.786762 -111.976648 351 4236ft 10kts
01-Oct-20 23:34 40.792544 -111.977377 355 4236ft 33kts
01-Oct-20 23:35 40.803494 -111.978268 2 4236ft 36kts
01-Oct-20 23:36 40.805819 -111.976815 176 4236ft 10kts
01-Oct-20 23:37 40.777508 -111.973704 176 4721ft 157kts
01-Oct-20 23:38 40.772297 -112.014461 338 6357ft 180kts
01-Oct-20 23:39 40.825025 -112.019440 52 7645ft 234kts
01-Oct-20 23:40 40.824649 -111.929570 93 10354ft 254kts
01-Oct-20 23:41 40.819845 -111.832119 92 12651ft 282kts
01-Oct-20 23:42 40.815803 -111.725580 91 14417ft 323kts
01-Oct-20 23:43 40.811450 -111.607556 91 15348ft 383kts
01-Oct-20 23:44 40.805705 -111.456076 91 16453ft 437kts
01-Oct-20 23:45 40.799203 -111.290676 92 18528ft 459kts
01-Oct-20 23:46 40.792268 -111.119923 92 20603ft 473kts
01-Oct-20 23:47 40.784815 -110.943804 91 22293ft 489kts
01-Oct-20 23:48 40.776860 -110.761323 91 23793ft 505kts
01-Oct-20 23:49 40.768378 -110.574646 91 25161ft 514kts
01-Oct-20 23:50 40.759494 -110.385968 91 26755ft 512kts
01-Oct-20 23:51 40.750443 -110.199477 91 28441ft 506kts
01-Oct-20 23:52 40.740961 -110.015207 92 29833ft 504kts
01-Oct-20 23:53 40.728522 -109.831679 92 31077ft 502kts
01-Oct-20 23:54 40.715900 -109.648323 92 32217ft 500kts
01-Oct-20 23:55 40.703126 -109.465983 92 33280ft 498kts
01-Oct-20 23:56 40.690112 -109.284315 93 34243ft 497kts
01-Oct-20 23:57 40.676842 -109.103773 92 35071ft 497kts
01-Oct-20 23:58 40.664419 -108.920312 90 35340ft 502kts
01-Oct-20 23:59 40.652701 -108.736542 90 35343ft 502kts
02-Oct-20 00:00 40.640502 -108.553072 90 35359ft 502kts
02-Oct-20 00:01 40.627972 -108.369424 90 35395ft 502kts
02-Oct-20 00:02 40.615124 -108.185514 91 35404ft 502kts
02-Oct-20 00:03 40.602030 -108.002303 91 35398ft 502kts
02-Oct-20 00:04 40.588699 -107.819822 91 35392ft 502kts
02-Oct-20 00:05 40.575061 -107.637129 91 35388ft 502kts
02-Oct-20 00:06 40.561265 -107.453541 91 35388ft 502kts
02-Oct-20 00:07 40.547233 -107.271343 92 35396ft 502kts
02-Oct-20 00:08 40.532830 -107.088190 92 35401ft 502kts
02-Oct-20 00:09 40.518102 -106.905358 91 35398ft 503kts
02-Oct-20 00:10 40.503100 -106.722258 91 35333ft 505kts
02-Oct-20 00:11 40.487757 -106.538421 91 33078ft 509kts
02-Oct-20 00:12 40.471294 -106.352646 93 29773ft 518kts
02-Oct-20 00:13 40.454046 -106.164222 95 26279ft 526kts
02-Oct-20 00:14 40.437839 -105.979518 95 22962ft 495kts
02-Oct-20 00:15 40.415565 -105.805976 101 20587ft 464kts
02-Oct-20 00:16 40.390484 -105.649290 101 19607ft 412kts
02-Oct-20 00:17 40.368048 -105.508805 101 18473ft 377kts
02-Oct-20 00:18 40.347162 -105.379357 101 17323ft 349kts
02-Oct-20 00:19 40.330229 -105.256313 100 15847ft 336kts
02-Oct-20 00:20 40.314196 -105.137898 100 14361ft 323kts
02-Oct-20 00:21 40.298572 -105.024381 100 13169ft 304kts
02-Oct-20 00:22 40.284608 -104.923300 97 12942ft 274kts
02-Oct-20 00:23 40.271180 -104.825382 96 11668ft 270kts
02-Oct-20 00:24 40.250814 -104.732906 113 10932ft 263kts
02-Oct-20 00:25 40.193394 -104.682615 183 9988ft 255kts
02-Oct-20 00:26 40.124625 -104.684608 183 9983ft 243kts
02-Oct-20 00:27 40.057948 -104.684974 183 9151ft 237kts
02-Oct-20 00:28 39.993163 -104.685673 183 7772ft 221kts
02-Oct-20 00:29 39.938640 -104.686325 183 6212ft 174kts
02-Oct-20 00:30 39.895620 -104.686791 182 5432ft 147kts
02-Oct-20 00:31 39.868697 -104.687061 178 5363ft 38kts
02-Oct-20 00:32 39.863739 -104.685037 180 5369ft 8kts
02-Oct-20 00:33 39.860024 -104.685109 180 5373ft 20kts
02-Oct-20 00:34 39.853462 -104.685150 180 5373ft 22kts
02-Oct-20 00:35 39.852681 -104.680313 78 5380ft 16kts
02-Oct-20 00:36 39.853265 -104.675585 31 5380ft 1kts
02-Oct-20 00:37 39.853295 -104.675561 31 5380ft 0kts
02-Oct-20 00:38 39.853295 -104.675561 31 5380ft 0kts
02-Oct-20 00:39 39.853295 -104.675561 31 5380ft 0kts

Navigation Log

Ident Type
Flight plan parsing failed, navigation log unavailable